TFM - Tactical Decision Aid
ID: Runway Winds: CIG/VIS Threshold:

KJFK - New York/Kennedy Int, NY, US

Updated at: 2042 UTC 17 Jun 2019
Latest TAF at: 2041 UTC 17 Jun 2019

TAF Board

Time1951Z 17/21Z 17/22Z 17/23Z 18/00Z 18/01Z 18/02Z 18/03Z 18/04Z 18/05Z 18/06Z 18/07Z 18/08Z 18/09Z>>
Type OBS PRVL
  [TEMP]  
PRVL
  [TEMP]  
PRVL
  [TEMP]  
PRVL
  [TEMP]  
PRVL
  [TEMP]  
PRVL PRVL PRVL PRVL
  [TEMP]  
PRVL
  [TEMP]  
PRVL
  [TEMP]  
PRVL
  [TEMP]  
PRVL
  [TEMP]  
VIS 10 >6 >6
  [5]  
>6
  [5]  
>6
  [5]  
>6
  [5]  
5 5 5 5
  [5]  
5
  [5]  
5
  [5]  
3
  [1.5]  
3
  [1.5]  
CIG 38 40
  [25]  
40
  [25]  
40
  [25]  
40
  [25]  
40
  [25]  
25 25 25 25
  [10]  
25
  [10]  
25
  [10]  
10
  [4]  
10
  [4]  
Cover OVC BKN
  [BKN]  
BKN
  [BKN]  
BKN
  [BKN]  
BKN
  [BKN]  
BKN
  [BKN]  
BKN BKN BKN BKN
  [BKN]  
BKN
  [BKN]  
BKN
  [BKN]  
BKN
  [BKN]  
BKN
  [BKN]  
FltCat VFR VFR
  [MVFR]  
VFR
  [MVFR]  
VFR
  [MVFR]  
VFR
  [MVFR]  
VFR
  [MVFR]  
MVFR MVFR MVFR MVFR
  [MVFR]  
MVFR
  [MVFR]  
MVFR
  [MVFR]  
MVFR
  [LIFR]  
MVFR
  [LIFR]  
WX -RA -SHRA
  [--]  
VCTS
  [-SHRA]  
VCTS
  [-SHRA]  
VCTS
  [-SHRA]  
VCTS
  [-SHRA]  
BR BR BR BR
  [-SHRA BR]  
BR
  [-SHRA BR]  
BR
  [-SHRA BR]  
BR
  [BR]  
BR
  [BR]  
WDir 170 180
[180]
160
[160]
160
[160]
160
[160]
160
[160]
160 160 160 160
[160]
160
[160]
160
[160]
70
[70]
70
[70]
WSpd 5 6
  [6]  
5
  [5]  
5
  [5]  
5
  [5]  
5
  [5]  
5 5 5 5
  [5]  
5
  [5]  
5
  [5]  
4
  [4]  
4
  [4]  
WGst -- --
  [--]  
--
  [--]  
--
  [--]  
--
  [--]  
--
  [--]  
-- -- -- --
  [--]  
--
  [--]  
--
  [--]  
--
  [--]  
--
  [--]  

TDA Impact Legend

  None Marginal Slight Moderate High
Visibility (sm) >5 3≤X≤5 1≤X<3 0.5≤X<1 <0.5
Ceiling (100 ft) >30 10≤X≤30 4≤X<10 2≤X<4 <2
Wind Speed (kt) <15 15≤X<25 25≤X<30 ≥30
Wind Gust (kt) <15 15≤X<25 25≤X<35 ≥35
Weather No Wx Reported VCTS -TS,-FZRA TS,FZRA +TS,+FZRA
TAF
KJFK 172041Z 1721/1824 18006KT P6SM -SHRA BKN040
  TEMPO 1721/1722 BKN025
  FM172200 16005KT P6SM VCTS SCT025 BKN040CB
  TEMPO 1722/1802 5SM -SHRA BKN025
  FM180200 16005KT 5SM BR SCT010 BKN025
  TEMPO 1805/1808 5SM -SHRA BR BKN010
  FM180800 07004KT 3SM BR BKN010
  TEMPO 1808/1812 1 1/2SM BR BKN004
  FM181400 15007KT 5SM -SHRA BKN010
  FM182100 11008KT P6SM BKN035


METAR
KJFK 171951Z 17005KT 10SM -RA OVC038 22/19 A3000 RMK AO2 RAB26 SLP160 P0000 T02220194
KJFK 171851Z 20006KT 10SM FEW030 BKN046 BKN110 OVC130 23/19 A3001 RMK AO2 RAE41 SLP161 P0000 T02280189
KJFK 171751Z 20008KT 10SM -RA SCT030 BKN043 OVC150 23/20 A3000 RMK AO2 RAB47 SLP158 P0000 60000 T02330200 10244 20206 51008

Radar Display
Forecast Discussion